sensor_id;sensor_type;location;lat;lon;timestamp;P1;durP1;ratioP1;P2;durP2;ratioP2
28766;SDS011;15921;52.034;20.650;2024-02-28T00:01:51;117.18;;;50.17;;
28766;SDS011;15921;52.034;20.650;2024-02-28T00:04:18;107.63;;;48.22;;
28766;SDS011;15921;52.034;20.650;2024-02-28T00:06:44;100.97;;;48.78;;
28766;SDS011;15921;52.034;20.650;2024-02-28T00:09:11;107.65;;;49.85;;
28766;SDS011;15921;52.034;20.650;2024-02-28T00:11:42;102.80;;;47.05;;
28766;SDS011;15921;52.034;20.650;2024-02-28T00:14:09;105.50;;;50.88;;
28766;SDS011;15921;52.034;20.650;2024-02-28T00:16:35;95.32;;;45.10;;
28766;SDS011;15921;52.034;20.650;2024-02-28T00:19:01;107.20;;;48.22;;
28766;SDS011;15921;52.034;20.650;2024-02-28T00:21:27;106.82;;;49.33;;
28766;SDS011;15921;52.034;20.650;2024-02-28T00:23:52;114.28;;;48.47;;
28766;SDS011;15921;52.034;20.650;2024-02-28T00:26:18;102.35;;;49.50;;
28766;SDS011;15921;52.034;20.650;2024-02-28T00:28:44;86.50;;;44.08;;
28766;SDS011;15921;52.034;20.650;2024-02-28T00:31:09;104.88;;;49.33;;
28766;SDS011;15921;52.034;20.650;2024-02-28T00:33:35;98.63;;;48.65;;
28766;SDS011;15921;52.034;20.650;2024-02-28T00:36:01;100.10;;;46.72;;
28766;SDS011;15921;52.034;20.650;2024-02-28T00:38:26;85.72;;;40.53;;
28766;SDS011;15921;52.034;20.650;2024-02-28T00:40:52;88.30;;;41.72;;
28766;SDS011;15921;52.034;20.650;2024-02-28T00:43:18;99.35;;;47.17;;
28766;SDS011;15921;52.034;20.650;2024-02-28T00:45:44;100.25;;;47.38;;
28766;SDS011;15921;52.034;20.650;2024-02-28T00:48:09;100.15;;;45.05;;
28766;SDS011;15921;52.034;20.650;2024-02-28T00:50:35;92.07;;;41.95;;
28766;SDS011;15921;52.034;20.650;2024-02-28T00:53:01;85.47;;;40.05;;
28766;SDS011;15921;52.034;20.650;2024-02-28T00:55:27;95.57;;;45.33;;
28766;SDS011;15921;52.034;20.650;2024-02-28T00:57:53;94.40;;;44.38;;
28766;SDS011;15921;52.034;20.650;2024-02-28T01:00:19;84.88;;;41.42;;
28766;SDS011;15921;52.034;20.650;2024-02-28T01:02:45;83.00;;;41.22;;
28766;SDS011;15921;52.034;20.650;2024-02-28T01:05:10;83.90;;;40.67;;
28766;SDS011;15921;52.034;20.650;2024-02-28T01:07:36;82.93;;;41.03;;
28766;SDS011;15921;52.034;20.650;2024-02-28T01:10:02;94.40;;;44.88;;
28766;SDS011;15921;52.034;20.650;2024-02-28T01:12:29;97.05;;;46.13;;
28766;SDS011;15921;52.034;20.650;2024-02-28T01:14:55;87.60;;;43.03;;
28766;SDS011;15921;52.034;20.650;2024-02-28T01:17:20;90.10;;;44.85;;
28766;SDS011;15921;52.034;20.650;2024-02-28T01:19:46;93.78;;;43.83;;
28766;SDS011;15921;52.034;20.650;2024-02-28T01:22:12;97.97;;;45.25;;
28766;SDS011;15921;52.034;20.650;2024-02-28T01:24:38;83.15;;;41.58;;
28766;SDS011;15921;52.034;20.650;2024-02-28T01:27:03;101.22;;;48.45;;
28766;SDS011;15921;52.034;20.650;2024-02-28T01:29:29;106.32;;;51.75;;
28766;SDS011;15921;52.034;20.650;2024-02-28T01:31:55;97.45;;;46.65;;
28766;SDS011;15921;52.034;20.650;2024-02-28T01:34:21;109.65;;;50.45;;
28766;SDS011;15921;52.034;20.650;2024-02-28T01:36:47;102.78;;;47.20;;
28766;SDS011;15921;52.034;20.650;2024-02-28T01:39:13;108.93;;;52.25;;
28766;SDS011;15921;52.034;20.650;2024-02-28T01:41:38;110.75;;;53.50;;
28766;SDS011;15921;52.034;20.650;2024-02-28T01:44:04;97.57;;;46.63;;
28766;SDS011;15921;52.034;20.650;2024-02-28T01:46:30;111.75;;;51.50;;
28766;SDS011;15921;52.034;20.650;2024-02-28T01:48:56;105.30;;;47.67;;
28766;SDS011;15921;52.034;20.650;2024-02-28T01:51:23;95.63;;;45.90;;
28766;SDS011;15921;52.034;20.650;2024-02-28T01:53:53;94.07;;;45.15;;
28766;SDS011;15921;52.034;20.650;2024-02-28T01:56:20;97.90;;;46.58;;
28766;SDS011;15921;52.034;20.650;2024-02-28T01:58:48;100.20;;;47.92;;
28766;SDS011;15921;52.034;20.650;2024-02-28T02:01:15;94.53;;;43.28;;
28766;SDS011;15921;52.034;20.650;2024-02-28T02:03:42;93.38;;;44.85;;
28766;SDS011;15921;52.034;20.650;2024-02-28T02:06:09;100.82;;;47.30;;
28766;SDS011;15921;52.034;20.650;2024-02-28T02:08:36;97.30;;;46.00;;
28766;SDS011;15921;52.034;20.650;2024-02-28T02:11:02;97.15;;;43.97;;
28766;SDS011;15921;52.034;20.650;2024-02-28T02:13:28;97.95;;;45.67;;
28766;SDS011;15921;52.034;20.650;2024-02-28T02:15:54;101.78;;;46.45;;
28766;SDS011;15921;52.034;20.650;2024-02-28T02:18:20;95.80;;;47.75;;
28766;SDS011;15921;52.034;20.650;2024-02-28T02:20:46;104.25;;;48.50;;
28766;SDS011;15921;52.034;20.650;2024-02-28T02:23:19;99.95;;;48.35;;
28766;SDS011;15921;52.034;20.650;2024-02-28T02:25:46;98.53;;;49.75;;
28766;SDS011;15921;52.034;20.650;2024-02-28T02:28:12;92.22;;;47.05;;
28766;SDS011;15921;52.034;20.650;2024-02-28T02:30:39;106.47;;;47.00;;
28766;SDS011;15921;52.034;20.650;2024-02-28T02:33:07;93.85;;;46.13;;
28766;SDS011;15921;52.034;20.650;2024-02-28T02:35:33;89.00;;;42.83;;
28766;SDS011;15921;52.034;20.650;2024-02-28T02:37:59;98.28;;;46.10;;
28766;SDS011;15921;52.034;20.650;2024-02-28T02:40:25;108.07;;;47.38;;
28766;SDS011;15921;52.034;20.650;2024-02-28T02:42:51;95.03;;;47.33;;
28766;SDS011;15921;52.034;20.650;2024-02-28T02:45:17;102.30;;;48.55;;
28766;SDS011;15921;52.034;20.650;2024-02-28T02:47:42;97.25;;;49.78;;
28766;SDS011;15921;52.034;20.650;2024-02-28T02:50:11;101.47;;;48.95;;
28766;SDS011;15921;52.034;20.650;2024-02-28T02:52:37;91.00;;;45.92;;
28766;SDS011;15921;52.034;20.650;2024-02-28T02:55:03;94.80;;;47.63;;
28766;SDS011;15921;52.034;20.650;2024-02-28T02:57:29;96.03;;;47.85;;
28766;SDS011;15921;52.034;20.650;2024-02-28T02:59:57;86.97;;;42.92;;
28766;SDS011;15921;52.034;20.650;2024-02-28T03:02:23;92.47;;;44.92;;
28766;SDS011;15921;52.034;20.650;2024-02-28T03:04:48;99.10;;;48.10;;
28766;SDS011;15921;52.034;20.650;2024-02-28T03:07:14;89.85;;;47.17;;
28766;SDS011;15921;52.034;20.650;2024-02-28T03:09:40;100.32;;;48.58;;
28766;SDS011;15921;52.034;20.650;2024-02-28T03:12:06;104.53;;;51.40;;
28766;SDS011;15921;52.034;20.650;2024-02-28T03:14:32;101.47;;;48.78;;
28766;SDS011;15921;52.034;20.650;2024-02-28T03:17:00;104.50;;;46.92;;
28766;SDS011;15921;52.034;20.650;2024-02-28T03:19:26;103.15;;;48.85;;
28766;SDS011;15921;52.034;20.650;2024-02-28T03:21:52;96.13;;;45.80;;
28766;SDS011;15921;52.034;20.650;2024-02-28T03:24:18;94.32;;;45.75;;
28766;SDS011;15921;52.034;20.650;2024-02-28T03:26:44;94.50;;;48.22;;
28766;SDS011;15921;52.034;20.650;2024-02-28T03:29:09;98.13;;;48.47;;
28766;SDS011;15921;52.034;20.650;2024-02-28T03:31:35;87.97;;;43.67;;
28766;SDS011;15921;52.034;20.650;2024-02-28T03:34:01;88.50;;;45.70;;
28766;SDS011;15921;52.034;20.650;2024-02-28T03:36:27;84.53;;;43.38;;
28766;SDS011;15921;52.034;20.650;2024-02-28T03:38:53;82.30;;;42.33;;
28766;SDS011;15921;52.034;20.650;2024-02-28T03:41:19;89.15;;;43.45;;
28766;SDS011;15921;52.034;20.650;2024-02-28T03:43:45;93.93;;;45.63;;
28766;SDS011;15921;52.034;20.650;2024-02-28T03:46:10;82.43;;;42.97;;
28766;SDS011;15921;52.034;20.650;2024-02-28T03:48:36;90.18;;;44.60;;
28766;SDS011;15921;52.034;20.650;2024-02-28T03:51:02;82.10;;;43.78;;
28766;SDS011;15921;52.034;20.650;2024-02-28T03:53:28;81.10;;;39.78;;
28766;SDS011;15921;52.034;20.650;2024-02-28T03:55:54;82.60;;;41.58;;
28766;SDS011;15921;52.034;20.650;2024-02-28T03:58:19;76.72;;;39.72;;
28766;SDS011;15921;52.034;20.650;2024-02-28T04:00:45;84.65;;;43.20;;
28766;SDS011;15921;52.034;20.650;2024-02-28T04:03:11;85.15;;;43.92;;
28766;SDS011;15921;52.034;20.650;2024-02-28T04:05:39;86.63;;;43.42;;
28766;SDS011;15921;52.034;20.650;2024-02-28T04:08:05;80.45;;;42.30;;
28766;SDS011;15921;52.034;20.650;2024-02-28T04:10:30;89.55;;;43.70;;
28766;SDS011;15921;52.034;20.650;2024-02-28T04:12:56;93.22;;;44.75;;
28766;SDS011;15921;52.034;20.650;2024-02-28T04:15:22;99.55;;;46.13;;
28766;SDS011;15921;52.034;20.650;2024-02-28T04:17:50;92.82;;;44.53;;
28766;SDS011;15921;52.034;20.650;2024-02-28T04:20:17;75.13;;;39.17;;
28766;SDS011;15921;52.034;20.650;2024-02-28T04:22:42;88.60;;;43.25;;
28766;SDS011;15921;52.034;20.650;2024-02-28T04:25:08;103.30;;;46.33;;
28766;SDS011;15921;52.034;20.650;2024-02-28T04:27:35;89.97;;;46.30;;
28766;SDS011;15921;52.034;20.650;2024-02-28T04:30:01;90.88;;;44.33;;
28766;SDS011;15921;52.034;20.650;2024-02-28T04:32:27;87.00;;;43.95;;
28766;SDS011;15921;52.034;20.650;2024-02-28T04:34:53;82.63;;;40.95;;
28766;SDS011;15921;52.034;20.650;2024-02-28T04:37:19;83.43;;;41.72;;
28766;SDS011;15921;52.034;20.650;2024-02-28T04:39:44;81.47;;;42.22;;
28766;SDS011;15921;52.034;20.650;2024-02-28T04:42:10;83.90;;;42.75;;
28766;SDS011;15921;52.034;20.650;2024-02-28T04:44:36;72.20;;;39.15;;
28766;SDS011;15921;52.034;20.650;2024-02-28T04:47:01;77.95;;;38.97;;
28766;SDS011;15921;52.034;20.650;2024-02-28T04:49:27;84.18;;;42.03;;
28766;SDS011;15921;52.034;20.650;2024-02-28T04:51:53;86.57;;;41.30;;
28766;SDS011;15921;52.034;20.650;2024-02-28T04:54:19;79.30;;;41.17;;
28766;SDS011;15921;52.034;20.650;2024-02-28T04:56:44;79.82;;;41.70;;
28766;SDS011;15921;52.034;20.650;2024-02-28T04:59:11;74.07;;;35.92;;
28766;SDS011;15921;52.034;20.650;2024-02-28T05:01:40;83.78;;;41.00;;
28766;SDS011;15921;52.034;20.650;2024-02-28T05:04:07;82.75;;;40.97;;
28766;SDS011;15921;52.034;20.650;2024-02-28T05:06:33;76.07;;;39.70;;
28766;SDS011;15921;52.034;20.650;2024-02-28T05:08:59;82.85;;;38.95;;
28766;SDS011;15921;52.034;20.650;2024-02-28T05:11:25;71.50;;;36.92;;
28766;SDS011;15921;52.034;20.650;2024-02-28T05:13:50;86.20;;;42.20;;
28766;SDS011;15921;52.034;20.650;2024-02-28T05:16:16;82.80;;;40.47;;
28766;SDS011;15921;52.034;20.650;2024-02-28T05:18:44;76.85;;;40.67;;
28766;SDS011;15921;52.034;20.650;2024-02-28T05:21:10;77.43;;;38.80;;
28766;SDS011;15921;52.034;20.650;2024-02-28T05:23:36;85.80;;;41.72;;
28766;SDS011;15921;52.034;20.650;2024-02-28T05:26:02;87.78;;;44.88;;
28766;SDS011;15921;52.034;20.650;2024-02-28T05:28:32;90.07;;;44.72;;
28766;SDS011;15921;52.034;20.650;2024-02-28T05:31:00;85.50;;;44.03;;
28766;SDS011;15921;52.034;20.650;2024-02-28T05:33:35;74.47;;;38.50;;
28766;SDS011;15921;52.034;20.650;2024-02-28T05:36:00;79.93;;;39.92;;
28766;SDS011;15921;52.034;20.650;2024-02-28T05:38:26;80.72;;;40.88;;
28766;SDS011;15921;52.034;20.650;2024-02-28T05:40:52;91.97;;;47.33;;
28766;SDS011;15921;52.034;20.650;2024-02-28T05:43:17;88.82;;;43.67;;
28766;SDS011;15921;52.034;20.650;2024-02-28T05:45:43;87.88;;;41.97;;
28766;SDS011;15921;52.034;20.650;2024-02-28T05:48:09;86.55;;;41.13;;
28766;SDS011;15921;52.034;20.650;2024-02-28T05:50:34;80.10;;;40.65;;
28766;SDS011;15921;52.034;20.650;2024-02-28T05:53:00;72.25;;;37.05;;
28766;SDS011;15921;52.034;20.650;2024-02-28T05:55:26;84.53;;;43.38;;
28766;SDS011;15921;52.034;20.650;2024-02-28T05:57:53;76.43;;;38.63;;
28766;SDS011;15921;52.034;20.650;2024-02-28T06:00:18;69.13;;;38.70;;
28766;SDS011;15921;52.034;20.650;2024-02-28T06:02:44;86.88;;;43.22;;
28766;SDS011;15921;52.034;20.650;2024-02-28T06:05:10;84.00;;;42.10;;
28766;SDS011;15921;52.034;20.650;2024-02-28T06:07:35;87.07;;;44.92;;
28766;SDS011;15921;52.034;20.650;2024-02-28T06:10:01;85.30;;;41.20;;
28766;SDS011;15921;52.034;20.650;2024-02-28T06:12:27;91.82;;;45.20;;
28766;SDS011;15921;52.034;20.650;2024-02-28T06:14:52;99.32;;;48.33;;
28766;SDS011;15921;52.034;20.650;2024-02-28T06:17:27;91.72;;;47.00;;
28766;SDS011;15921;52.034;20.650;2024-02-28T06:20:11;89.60;;;45.75;;
28766;SDS011;15921;52.034;20.650;2024-02-28T06:22:36;89.03;;;44.25;;
28766;SDS011;15921;52.034;20.650;2024-02-28T06:25:02;83.53;;;43.75;;
28766;SDS011;15921;52.034;20.650;2024-02-28T06:27:32;82.15;;;43.42;;
28766;SDS011;15921;52.034;20.650;2024-02-28T06:29:59;77.55;;;40.42;;
28766;SDS011;15921;52.034;20.650;2024-02-28T06:32:24;95.60;;;49.10;;
28766;SDS011;15921;52.034;20.650;2024-02-28T06:34:50;90.05;;;44.40;;
28766;SDS011;15921;52.034;20.650;2024-02-28T06:37:16;74.97;;;39.53;;
28766;SDS011;15921;52.034;20.650;2024-02-28T06:39:41;76.05;;;40.35;;
28766;SDS011;15921;52.034;20.650;2024-02-28T06:42:07;84.40;;;42.72;;
28766;SDS011;15921;52.034;20.650;2024-02-28T06:44:33;81.68;;;40.53;;
28766;SDS011;15921;52.034;20.650;2024-02-28T06:46:58;74.05;;;39.70;;
28766;SDS011;15921;52.034;20.650;2024-02-28T06:49:24;77.25;;;39.50;;
28766;SDS011;15921;52.034;20.650;2024-02-28T06:51:50;69.22;;;36.90;;
28766;SDS011;15921;52.034;20.650;2024-02-28T06:54:16;73.43;;;38.35;;
28766;SDS011;15921;52.034;20.650;2024-02-28T06:56:42;66.75;;;35.85;;
28766;SDS011;15921;52.034;20.650;2024-02-28T06:59:07;72.93;;;37.60;;
28766;SDS011;15921;52.034;20.650;2024-02-28T07:01:33;78.53;;;39.83;;
28766;SDS011;15921;52.034;20.650;2024-02-28T07:03:59;78.90;;;40.38;;
28766;SDS011;15921;52.034;20.650;2024-02-28T07:06:24;76.80;;;39.38;;
28766;SDS011;15921;52.034;20.650;2024-02-28T07:08:50;81.28;;;39.50;;
28766;SDS011;15921;52.034;20.650;2024-02-28T07:11:16;74.43;;;39.45;;
28766;SDS011;15921;52.034;20.650;2024-02-28T07:13:41;74.72;;;38.47;;
28766;SDS011;15921;52.034;20.650;2024-02-28T07:16:07;79.80;;;42.53;;
28766;SDS011;15921;52.034;20.650;2024-02-28T07:18:33;75.15;;;37.58;;
28766;SDS011;15921;52.034;20.650;2024-02-28T07:20:59;74.47;;;39.38;;
28766;SDS011;15921;52.034;20.650;2024-02-28T07:23:24;72.60;;;36.95;;
28766;SDS011;15921;52.034;20.650;2024-02-28T07:25:50;77.05;;;38.58;;
28766;SDS011;15921;52.034;20.650;2024-02-28T07:28:16;76.65;;;41.65;;
28766;SDS011;15921;52.034;20.650;2024-02-28T07:30:42;75.90;;;40.78;;
28766;SDS011;15921;52.034;20.650;2024-02-28T07:33:09;76.45;;;40.22;;
28766;SDS011;15921;52.034;20.650;2024-02-28T07:35:44;74.88;;;41.05;;
28766;SDS011;15921;52.034;20.650;2024-02-28T07:38:13;68.00;;;37.80;;
28766;SDS011;15921;52.034;20.650;2024-02-28T07:40:39;75.60;;;40.10;;
28766;SDS011;15921;52.034;20.650;2024-02-28T07:43:05;93.10;;;40.28;;
28766;SDS011;15921;52.034;20.650;2024-02-28T07:45:31;74.20;;;39.67;;
28766;SDS011;15921;52.034;20.650;2024-02-28T07:47:57;83.07;;;42.92;;
28766;SDS011;15921;52.034;20.650;2024-02-28T07:50:22;85.43;;;42.90;;
28766;SDS011;15921;52.034;20.650;2024-02-28T07:52:48;79.45;;;42.75;;
28766;SDS011;15921;52.034;20.650;2024-02-28T07:55:14;90.43;;;47.95;;
28766;SDS011;15921;52.034;20.650;2024-02-28T07:57:39;85.90;;;45.17;;
28766;SDS011;15921;52.034;20.650;2024-02-28T08:00:05;85.82;;;44.92;;
28766;SDS011;15921;52.034;20.650;2024-02-28T08:02:31;92.38;;;46.85;;
28766;SDS011;15921;52.034;20.650;2024-02-28T08:04:58;85.35;;;43.38;;
28766;SDS011;15921;52.034;20.650;2024-02-28T08:07:24;91.32;;;48.58;;
28766;SDS011;15921;52.034;20.650;2024-02-28T08:09:50;79.03;;;44.08;;
28766;SDS011;15921;52.034;20.650;2024-02-28T08:12:15;92.05;;;46.13;;
28766;SDS011;15921;52.034;20.650;2024-02-28T08:14:41;89.85;;;47.92;;
28766;SDS011;15921;52.034;20.650;2024-02-28T08:17:07;89.60;;;47.13;;
28766;SDS011;15921;52.034;20.650;2024-02-28T08:19:32;93.55;;;48.78;;
28766;SDS011;15921;52.034;20.650;2024-02-28T08:22:00;108.28;;;51.67;;
28766;SDS011;15921;52.034;20.650;2024-02-28T08:24:26;97.95;;;51.25;;
28766;SDS011;15921;52.034;20.650;2024-02-28T08:26:51;96.22;;;47.65;;
28766;SDS011;15921;52.034;20.650;2024-02-28T08:29:17;107.35;;;54.67;;
28766;SDS011;15921;52.034;20.650;2024-02-28T08:31:43;101.93;;;50.40;;
28766;SDS011;15921;52.034;20.650;2024-02-28T08:34:09;110.57;;;54.08;;
28766;SDS011;15921;52.034;20.650;2024-02-28T08:36:35;89.07;;;49.50;;
28766;SDS011;15921;52.034;20.650;2024-02-28T08:39:02;106.40;;;55.08;;
28766;SDS011;15921;52.034;20.650;2024-02-28T08:41:30;111.78;;;56.15;;
28766;SDS011;15921;52.034;20.650;2024-02-28T08:43:59;102.75;;;54.00;;
28766;SDS011;15921;52.034;20.650;2024-02-28T08:46:24;103.32;;;55.55;;
28766;SDS011;15921;52.034;20.650;2024-02-28T08:48:50;96.85;;;51.58;;
28766;SDS011;15921;52.034;20.650;2024-02-28T08:51:16;95.57;;;49.53;;
28766;SDS011;15921;52.034;20.650;2024-02-28T08:53:41;91.43;;;49.22;;
28766;SDS011;15921;52.034;20.650;2024-02-28T08:56:07;93.63;;;49.70;;
28766;SDS011;15921;52.034;20.650;2024-02-28T08:58:33;107.22;;;50.03;;
28766;SDS011;15921;52.034;20.650;2024-02-28T09:00:58;99.75;;;48.13;;
28766;SDS011;15921;52.034;20.650;2024-02-28T09:03:25;91.38;;;47.13;;
28766;SDS011;15921;52.034;20.650;2024-02-28T09:05:51;90.40;;;46.53;;
28766;SDS011;15921;52.034;20.650;2024-02-28T09:08:17;90.65;;;45.53;;
28766;SDS011;15921;52.034;20.650;2024-02-28T09:10:43;74.80;;;41.13;;
28766;SDS011;15921;52.034;20.650;2024-02-28T09:13:09;81.32;;;41.65;;
28766;SDS011;15921;52.034;20.650;2024-02-28T09:15:37;80.40;;;42.53;;
28766;SDS011;15921;52.034;20.650;2024-02-28T09:18:03;79.05;;;40.63;;
28766;SDS011;15921;52.034;20.650;2024-02-28T09:20:29;78.45;;;41.25;;
28766;SDS011;15921;52.034;20.650;2024-02-28T09:22:54;77.07;;;42.40;;
28766;SDS011;15921;52.034;20.650;2024-02-28T09:25:20;72.78;;;37.47;;
28766;SDS011;15921;52.034;20.650;2024-02-28T09:27:46;80.05;;;40.90;;
28766;SDS011;15921;52.034;20.650;2024-02-28T09:30:12;70.93;;;38.88;;
28766;SDS011;15921;52.034;20.650;2024-02-28T09:32:38;69.90;;;39.42;;
28766;SDS011;15921;52.034;20.650;2024-02-28T09:35:04;73.63;;;38.67;;
28766;SDS011;15921;52.034;20.650;2024-02-28T09:37:32;76.93;;;41.67;;
28766;SDS011;15921;52.034;20.650;2024-02-28T09:39:57;78.10;;;42.03;;
28766;SDS011;15921;52.034;20.650;2024-02-28T09:42:23;78.50;;;39.85;;
28766;SDS011;15921;52.034;20.650;2024-02-28T09:44:49;79.35;;;39.42;;
28766;SDS011;15921;52.034;20.650;2024-02-28T09:47:15;73.30;;;39.28;;
28766;SDS011;15921;52.034;20.650;2024-02-28T09:49:41;78.88;;;40.92;;
28766;SDS011;15921;52.034;20.650;2024-02-28T09:52:08;76.40;;;38.58;;
28766;SDS011;15921;52.034;20.650;2024-02-28T09:54:34;73.50;;;39.25;;
28766;SDS011;15921;52.034;20.650;2024-02-28T09:56:59;76.15;;;38.15;;
28766;SDS011;15921;52.034;20.650;2024-02-28T09:59:25;73.07;;;39.33;;
28766;SDS011;15921;52.034;20.650;2024-02-28T10:01:56;71.80;;;40.13;;
28766;SDS011;15921;52.034;20.650;2024-02-28T10:04:25;71.72;;;38.40;;
28766;SDS011;15921;52.034;20.650;2024-02-28T10:06:52;73.60;;;38.75;;
28766;SDS011;15921;52.034;20.650;2024-02-28T10:09:18;69.47;;;36.70;;
28766;SDS011;15921;52.034;20.650;2024-02-28T10:11:44;71.05;;;37.22;;
28766;SDS011;15921;52.034;20.650;2024-02-28T10:14:11;70.22;;;38.47;;
28766;SDS011;15921;52.034;20.650;2024-02-28T10:16:42;70.93;;;36.70;;
28766;SDS011;15921;52.034;20.650;2024-02-28T10:19:07;70.45;;;37.15;;
28766;SDS011;15921;52.034;20.650;2024-02-28T10:21:33;67.72;;;36.67;;
28766;SDS011;15921;52.034;20.650;2024-02-28T10:23:59;68.05;;;35.80;;
28766;SDS011;15921;52.034;20.650;2024-02-28T10:26:25;69.75;;;35.65;;
28766;SDS011;15921;52.034;20.650;2024-02-28T10:28:50;67.03;;;35.95;;
28766;SDS011;15921;52.034;20.650;2024-02-28T10:31:16;69.00;;;35.90;;
28766;SDS011;15921;52.034;20.650;2024-02-28T10:33:42;68.38;;;36.88;;
28766;SDS011;15921;52.034;20.650;2024-02-28T10:36:11;69.40;;;36.65;;
28766;SDS011;15921;52.034;20.650;2024-02-28T10:38:38;69.60;;;35.63;;
28766;SDS011;15921;52.034;20.650;2024-02-28T10:41:05;66.95;;;34.95;;
28766;SDS011;15921;52.034;20.650;2024-02-28T10:43:30;66.47;;;35.28;;
28766;SDS011;15921;52.034;20.650;2024-02-28T10:46:00;67.93;;;35.50;;
28766;SDS011;15921;52.034;20.650;2024-02-28T10:48:26;68.63;;;37.22;;
28766;SDS011;15921;52.034;20.650;2024-02-28T10:50:52;71.18;;;35.00;;
28766;SDS011;15921;52.034;20.650;2024-02-28T10:53:31;68.55;;;35.25;;
28766;SDS011;15921;52.034;20.650;2024-02-28T10:56:03;68.95;;;35.65;;
28766;SDS011;15921;52.034;20.650;2024-02-28T10:58:36;71.28;;;36.17;;
28766;SDS011;15921;52.034;20.650;2024-02-28T11:01:06;75.95;;;36.10;;
28766;SDS011;15921;52.034;20.650;2024-02-28T11:03:33;69.38;;;34.65;;
28766;SDS011;15921;52.034;20.650;2024-02-28T11:05:59;79.63;;;36.30;;
28766;SDS011;15921;52.034;20.650;2024-02-28T11:08:26;80.75;;;36.85;;
28766;SDS011;15921;52.034;20.650;2024-02-28T11:11:02;78.90;;;37.08;;
28766;SDS011;15921;52.034;20.650;2024-02-28T11:13:29;76.50;;;36.58;;
28766;SDS011;15921;52.034;20.650;2024-02-28T11:16:06;68.72;;;35.53;;
28766;SDS011;15921;52.034;20.650;2024-02-28T11:18:35;75.15;;;36.25;;
28766;SDS011;15921;52.034;20.650;2024-02-28T11:21:01;80.30;;;37.83;;
28766;SDS011;15921;52.034;20.650;2024-02-28T11:23:36;76.40;;;35.90;;
28766;SDS011;15921;52.034;20.650;2024-02-28T11:26:02;80.72;;;39.45;;
28766;SDS011;15921;52.034;20.650;2024-02-28T11:28:29;76.28;;;36.97;;
28766;SDS011;15921;52.034;20.650;2024-02-28T11:30:54;77.38;;;37.28;;
28766;SDS011;15921;52.034;20.650;2024-02-28T11:33:20;69.00;;;34.33;;
28766;SDS011;15921;52.034;20.650;2024-02-28T11:35:56;74.65;;;34.42;;
28766;SDS011;15921;52.034;20.650;2024-02-28T11:38:25;82.05;;;37.63;;
28766;SDS011;15921;52.034;20.650;2024-02-28T11:40:51;79.15;;;38.08;;
28766;SDS011;15921;52.034;20.650;2024-02-28T11:43:17;80.53;;;37.88;;
28766;SDS011;15921;52.034;20.650;2024-02-28T11:45:43;78.70;;;37.20;;
28766;SDS011;15921;52.034;20.650;2024-02-28T11:48:12;83.50;;;37.53;;
28766;SDS011;15921;52.034;20.650;2024-02-28T11:50:41;83.00;;;39.95;;
28766;SDS011;15921;52.034;20.650;2024-02-28T11:53:07;81.65;;;39.05;;
28766;SDS011;15921;52.034;20.650;2024-02-28T11:55:34;89.15;;;42.22;;
28766;SDS011;15921;52.034;20.650;2024-02-28T11:58:00;78.82;;;40.90;;
28766;SDS011;15921;52.034;20.650;2024-02-28T12:00:26;89.70;;;42.72;;
28766;SDS011;15921;52.034;20.650;2024-02-28T12:02:52;98.68;;;46.28;;
28766;SDS011;15921;52.034;20.650;2024-02-28T12:05:28;104.65;;;47.13;;
28766;SDS011;15921;52.034;20.650;2024-02-28T12:07:54;102.10;;;48.83;;
28766;SDS011;15921;52.034;20.650;2024-02-28T12:10:20;102.03;;;50.08;;
28766;SDS011;15921;52.034;20.650;2024-02-28T12:12:48;116.13;;;54.58;;
28766;SDS011;15921;52.034;20.650;2024-02-28T12:15:15;110.75;;;54.22;;
28766;SDS011;15921;52.034;20.650;2024-02-28T12:17:42;102.80;;;51.63;;
28766;SDS011;15921;52.034;20.650;2024-02-28T12:20:08;102.03;;;50.05;;
28766;SDS011;15921;52.034;20.650;2024-02-28T12:22:34;97.80;;;49.50;;
28766;SDS011;15921;52.034;20.650;2024-02-28T12:25:00;98.53;;;47.88;;
28766;SDS011;15921;52.034;20.650;2024-02-28T12:27:29;100.50;;;48.50;;
28766;SDS011;15921;52.034;20.650;2024-02-28T12:29:56;97.72;;;47.83;;
28766;SDS011;15921;52.034;20.650;2024-02-28T12:32:22;96.70;;;45.22;;
28766;SDS011;15921;52.034;20.650;2024-02-28T12:34:48;99.07;;;46.00;;
28766;SDS011;15921;52.034;20.650;2024-02-28T12:37:13;90.40;;;44.72;;
28766;SDS011;15921;52.034;20.650;2024-02-28T12:39:39;96.15;;;46.53;;
28766;SDS011;15921;52.034;20.650;2024-02-28T12:42:05;94.40;;;44.58;;
28766;SDS011;15921;52.034;20.650;2024-02-28T12:44:32;99.55;;;44.72;;
28766;SDS011;15921;52.034;20.650;2024-02-28T12:46:58;105.60;;;49.38;;
28766;SDS011;15921;52.034;20.650;2024-02-28T12:49:23;95.65;;;45.67;;
28766;SDS011;15921;52.034;20.650;2024-02-28T12:51:49;90.32;;;41.70;;
28766;SDS011;15921;52.034;20.650;2024-02-28T12:54:16;88.95;;;41.50;;
28766;SDS011;15921;52.034;20.650;2024-02-28T12:56:43;89.03;;;40.97;;
28766;SDS011;15921;52.034;20.650;2024-02-28T12:59:09;83.63;;;40.50;;
28766;SDS011;15921;52.034;20.650;2024-02-28T13:01:35;80.35;;;38.95;;
28766;SDS011;15921;52.034;20.650;2024-02-28T13:04:01;78.45;;;38.97;;
28766;SDS011;15921;52.034;20.650;2024-02-28T13:06:28;80.55;;;38.30;;
28766;SDS011;15921;52.034;20.650;2024-02-28T13:08:53;75.35;;;38.58;;
28766;SDS011;15921;52.034;20.650;2024-02-28T13:11:20;84.53;;;39.75;;
28766;SDS011;15921;52.034;20.650;2024-02-28T13:13:48;82.07;;;38.50;;
28766;SDS011;15921;52.034;20.650;2024-02-28T13:16:17;87.25;;;39.47;;
28766;SDS011;15921;52.034;20.650;2024-02-28T13:18:43;85.80;;;38.50;;
28766;SDS011;15921;52.034;20.650;2024-02-28T13:21:10;78.15;;;35.60;;
28766;SDS011;15921;52.034;20.650;2024-02-28T13:23:36;79.97;;;35.40;;
28766;SDS011;15921;52.034;20.650;2024-02-28T13:26:03;76.20;;;35.55;;
28766;SDS011;15921;52.034;20.650;2024-02-28T13:28:32;76.15;;;34.85;;
28766;SDS011;15921;52.034;20.650;2024-02-28T13:30:59;81.70;;;36.35;;
28766;SDS011;15921;52.034;20.650;2024-02-28T13:33:25;70.68;;;34.30;;
28766;SDS011;15921;52.034;20.650;2024-02-28T13:35:51;74.63;;;33.78;;
28766;SDS011;15921;52.034;20.650;2024-02-28T13:38:18;71.72;;;32.15;;
28766;SDS011;15921;52.034;20.650;2024-02-28T13:40:44;70.03;;;32.10;;
28766;SDS011;15921;52.034;20.650;2024-02-28T13:43:14;69.43;;;32.05;;
28766;SDS011;15921;52.034;20.650;2024-02-28T13:45:42;65.57;;;29.88;;
28766;SDS011;15921;52.034;20.650;2024-02-28T13:48:21;69.47;;;30.15;;
28766;SDS011;15921;52.034;20.650;2024-02-28T13:50:49;64.43;;;27.98;;
28766;SDS011;15921;52.034;20.650;2024-02-28T13:53:16;56.35;;;25.38;;
28766;SDS011;15921;52.034;20.650;2024-02-28T13:55:42;62.20;;;26.13;;
28766;SDS011;15921;52.034;20.650;2024-02-28T13:58:08;62.38;;;24.55;;
28766;SDS011;15921;52.034;20.650;2024-02-28T14:00:36;46.45;;;22.70;;
28766;SDS011;15921;52.034;20.650;2024-02-28T14:03:05;49.63;;;22.35;;